• Join FlightAware (Why Join?)
  • Login
  • US Flag 
11:01AM EDT


 

Airport Tracker/Info


-or-


 

Live Flight TrackerFlight Track Log ✈ THY2460 ✈ 21-Aug-2013 ✈ LTBA / IST - LTAF / ADA

Flight Track Log - Related Links

Times and Time Zones

All times are in EDT time to prevent confusion due to time zone crossing. See the THY2460 flight status page for this flight to view local times or setup timezone preferences in your user account.

Time Position Orientation Groundspeed Altitude Reporting Facility
EDT Latitude Longitude Course Direction KTS MPH feet Rate Location/Type
04:35AM 40.4472 29.7572 126° Southeast  Level Estimated
04:36AM 40.3805 29.8731 127° Southeast  Level Estimated
04:37AM 40.3136 29.9889 127° Southeast  Level Estimated
04:38AM 40.2467 30.1044 127° Southeast  Level Estimated
04:39AM 40.1796 30.2197 127° Southeast  Level Estimated
04:40AM 40.1124 30.3347 127° Southeast  Level Estimated
04:41AM 40.0451 30.4495 127° Southeast  Level Estimated
04:42AM 39.9777 30.5641 127° Southeast  Level Estimated
04:43AM 39.9101 30.6785 128° Southeast  Level Estimated
04:44AM 39.8425 30.7926 128° Southeast  Level Estimated
04:45AM 39.7747 30.9065 128° Southeast  Level Estimated
04:46AM 39.7069 31.0202 128° Southeast  Level Estimated
04:47AM 39.6389 31.1337 128° Southeast  Level Estimated
04:48AM 39.5708 31.2470 128° Southeast  Level Estimated
04:49AM 39.5026 31.3600 128° Southeast  Level Estimated
04:50AM 39.4343 31.4728 128° Southeast  Level Estimated
04:51AM 39.3659 31.5854 128° Southeast  Level Estimated
04:52AM 39.2973 31.6977 128° Southeast  Level Estimated
04:53AM 39.2287 31.8099 128° Southeast  Level Estimated
04:54AM 39.1600 31.9218 128° Southeast  Level Estimated
04:55AM 39.0911 32.0335 128° Southeast  Level Estimated
04:56AM 39.0222 32.1450 129° Southeast  Level Estimated
04:57AM 38.9531 32.2562 129° Southeast  Level Estimated
04:58AM 38.8839 32.3673 129° Southeast  Level Estimated
04:59AM 38.8147 32.4781 129° Southeast  Level Estimated
05:00AM 38.7453 32.5887 129° Southeast  Level Estimated
05:01AM 38.6758 32.6992 129° Southeast  Level Estimated
05:02AM 38.6063 32.8093 129° Southeast  Level Estimated
05:03AM 38.5366 32.9193 129° Southeast  Level Estimated
05:04AM 38.4668 33.0291 129° Southeast  Level Estimated
05:05AM 38.3969 33.1386 129° Southeast  Level Estimated
05:06AM 38.3269 33.2480 129° Southeast  Level Estimated
05:07AM 38.2568 33.3571 129° Southeast  Level Estimated
05:08AM 38.1866 33.4660 129° Southeast  Level Estimated
05:09AM 38.1163 33.5747 129° Southeast  Level Estimated
05:10AM 38.0459 33.6832 129° Southeast  Level Estimated
05:11AM 37.9754 33.7915 130° Southeast  Level Estimated
05:12AM 37.9049 33.8996 130° Southeast  Level Estimated
05:13AM 37.8342 34.0075 130° Southeast  Level Estimated
05:14AM 37.7634 34.1151 130° Southeast  Level Estimated
05:15AM 37.6925 34.2226 130° Southeast  Level Estimated
05:16AM 37.6215 34.3299 130° Southeast  Level Estimated
05:17AM 37.5504 34.4369 130° Southeast  Level Estimated
05:18AM 37.4792 34.5438 130° Southeast  Level Estimated
05:19AM 37.4080 34.6504 130° Southeast  Level Estimated
05:20AM 37.3366 34.7568 130° Southeast  Level Estimated
05:21AM 37.2651 34.8631 130° Southeast  Level Estimated
05:22AM 37.1936 34.9691 130° Southeast  Level Estimated
05:23AM 37.1219 35.0750 130° Southeast  Level Estimated
05:24AM 37.0502 35.1806 130° Southeast  Level Estimated
05:25AM 36.9822 35.2804 130° Southeast  Level Estimated
05:26AM 36.9822 35.2804 202° Southwest  Level Estimated
05:27AM 36.9822 35.2804 202° Southwest  Level Estimated
05:28AM 36.9822 35.2804 202° Southwest  Level Estimated
05:29AM 36.9822 35.2804 202° Southwest  Level Estimated
05:30AM 36.9822 35.2804 202° Southwest  Level Estimated
05:31AM 36.9822 35.2804 202° Southwest  Level Estimated
05:32AM 36.9822 35.2804 202° Southwest  Level Estimated
05:33AM 36.9822 35.2804 202° Southwest  Level Estimated
05:34AM 36.9822 35.2804 202° Southwest  Level Estimated
05:35AM 36.9822 35.2804 202° Southwest  Level Estimated
05:36AM 36.9822 35.2804 202° Southwest  Level Estimated
05:37AM 36.9822 35.2804 202° Southwest  Level Estimated
05:38AM 36.9822 35.2804 202° Southwest  Level Estimated
05:39AM 36.9822 35.2804 202° Southwest  Level Estimated
05:40AM 36.9822 35.2804 202° Southwest  Level Estimated
05:41AM 36.9822 35.2804 202° Southwest  Level Estimated